Time;durP1;ratioP1;P1;durP2;ratioP2;P2;SDS_P1;SDS_P2;PMS_P1;PMS_P2;Temp;Humidity;BMP_temperature;BMP_pressure;BME280_temperature;BME280_humidity;BME280_pressure;Samples;Min_cycle;Max_cycle;Signal;HPM_P1;HPM_P2
2023/07/03 00:02:20;;;;;;;9.10;7.68;;;;;;;;;;10338243;28;20072;-59
2023/07/03 00:07:19;;;;;;;8.80;7.38;;;;;;;;;;10339752;28;20089;-58
2023/07/03 00:12:18;;;;;;;9.32;7.75;;;;;;;;;;10337240;28;20067;-59
2023/07/03 00:17:17;;;;;;;8.57;7.65;;;;;;;;;;10338280;28;20088;-59
2023/07/03 00:22:16;;;;;;;9.13;8.23;;;;;;;;;;10338681;28;20064;-58
2023/07/03 00:27:14;;;;;;;8.45;7.60;;;;;;;;;;10336534;28;20517;-59
2023/07/03 00:32:12;;;;;;;10.18;7.55;;;;;;;;;;10312499;28;20086;-59
2023/07/03 00:37:14;;;;;;;8.80;7.47;;;;;;;;;;10330921;28;20079;-59
2023/07/03 00:42:12;;;;;;;10.63;7.47;;;;;;;;;;10316832;28;20500;-59
2023/07/03 00:47:11;;;;;;;8.55;7.75;;;;;;;;;;10316130;28;20091;-59
2023/07/03 00:52:14;;;;;;;9.00;8.20;;;;;;;;;;10330418;28;20087;-59
2023/07/03 00:57:13;;;;;;;9.97;7.20;;;;;;;;;;10334174;28;20532;-60
2023/07/03 01:02:12;;;;;;;8.38;7.57;;;;;;;;;;10333454;28;20064;-59
2023/07/03 01:07:13;;;;;;;9.45;8.25;;;;;;;;;;10334983;28;20075;-60
2023/07/03 01:12:13;;;;;;;8.23;7.43;;;;;;;;;;10326935;28;20131;-60
2023/07/03 01:17:12;;;;;;;9.93;7.82;;;;;;;;;;10333812;28;20082;-59
2023/07/03 01:22:14;;;;;;;10.57;7.72;;;;;;;;;;10335866;28;20075;-59
2023/07/03 01:27:15;;;;;;;10.85;8.30;;;;;;;;;;10333185;28;20067;-60
2023/07/03 01:32:14;;;;;;;8.77;7.85;;;;;;;;;;10333178;28;20064;-59
2023/07/03 01:37:13;;;;;;;8.50;7.60;;;;;;;;;;10331838;28;20071;-59
2023/07/03 01:42:12;;;;;;;9.50;7.97;;;;;;;;;;10315704;28;20060;-59
2023/07/03 01:47:13;;;;;;;8.30;7.50;;;;;;;;;;10334574;28;20087;-59
2023/07/03 01:52:15;;;;;;;8.98;8.13;;;;;;;;;;10330453;28;20072;-58
2023/07/03 01:57:15;;;;;;;9.75;7.60;;;;;;;;;;10330174;28;20094;-59
2023/07/03 02:02:17;;;;;;;10.50;8.55;;;;;;;;;;10312128;28;20080;-60
2023/07/03 02:07:17;;;;;;;9.63;8.13;;;;;;;;;;10336780;28;20063;-60
2023/07/03 02:12:15;;;;;;;11.52;7.97;;;;;;;;;;10329000;28;20080;-59
2023/07/03 02:17:16;;;;;;;8.80;7.90;;;;;;;;;;10331425;28;20083;-60
2023/07/03 02:22:16;;;;;;;8.65;7.85;;;;;;;;;;10330733;28;20480;-60
2023/07/03 02:27:16;;;;;;;8.93;8.02;;;;;;;;;;10313963;28;20045;-60
2023/07/03 02:32:14;;;;;;;9.10;8.25;;;;;;;;;;10330760;28;20072;-60
2023/07/03 02:37:14;;;;;;;9.95;8.88;;;;;;;;;;10329805;28;20064;-59
2023/07/03 02:42:12;;;;;;;9.40;8.50;;;;;;;;;;10330198;28;20072;-60
2023/07/03 02:47:11;;;;;;;10.80;9.13;;;;;;;;;;10316620;28;20638;-59
2023/07/03 02:52:09;;;;;;;9.63;8.73;;;;;;;;;;10327544;28;20091;-59
2023/07/03 02:57:09;;;;;;;10.68;9.55;;;;;;;;;;10312840;28;20086;-59
2023/07/03 03:02:08;;;;;;;10.43;9.43;;;;;;;;;;10333555;28;20091;-58
2023/07/03 03:07:06;;;;;;;10.35;9.35;;;;;;;;;;10322628;28;20072;-59
2023/07/03 03:12:05;;;;;;;9.98;9.05;;;;;;;;;;10327791;28;20044;-58
2023/07/03 03:17:05;;;;;;;11.32;9.95;;;;;;;;;;10328024;28;20083;-58
2023/07/03 03:22:04;;;;;;;11.35;10.25;;;;;;;;;;10338644;28;20064;-59
2023/07/03 03:27:06;;;;;;;13.82;10.88;;;;;;;;;;10315915;28;20087;-58
2023/07/03 03:32:08;;;;;;;11.73;10.53;;;;;;;;;;10320942;28;20528;-59
2023/07/03 03:37:06;;;;;;;12.48;10.25;;;;;;;;;;10321111;28;20075;-59
2023/07/03 03:42:05;;;;;;;11.52;10.32;;;;;;;;;;10337188;28;20060;-59
2023/07/03 03:47:04;;;;;;;11.40;10.32;;;;;;;;;;10336184;28;20090;-60
2023/07/03 03:52:04;;;;;;;12.38;9.98;;;;;;;;;;10320347;28;20072;-59
2023/07/03 03:57:03;;;;;;;10.85;9.85;;;;;;;;;;10331504;28;20075;-60
2023/07/03 04:02:01;;;;;;;12.07;10.98;;;;;;;;;;10337716;28;20071;-60
2023/07/03 04:07:01;;;;;;;10.93;9.57;;;;;;;;;;10333694;28;20047;-59
2023/07/03 04:12:01;;;;;;;14.13;9.30;;;;;;;;;;10333806;28;20075;-59
2023/07/03 04:17:00;;;;;;;10.13;9.18;;;;;;;;;;10334833;28;20071;-59
2023/07/03 04:21:58;;;;;;;12.27;10.95;;;;;;;;;;10335117;28;20131;-59
2023/07/03 04:26:59;;;;;;;11.18;10.07;;;;;;;;;;10332052;28;20474;-59
2023/07/03 04:31:58;;;;;;;12.95;11.75;;;;;;;;;;10333851;28;20452;-59
2023/07/03 04:36:57;;;;;;;13.18;11.95;;;;;;;;;;10333920;28;20086;-59
2023/07/03 04:41:59;;;;;;;12.52;11.32;;;;;;;;;;10334419;28;20079;-58
2023/07/03 04:47:04;;;;;;;14.63;12.93;;;;;;;;;;10335102;28;20084;-58
2023/07/03 04:52:04;;;;;;;13.93;12.60;;;;;;;;;;10335212;28;20068;-59
2023/07/03 04:57:03;;;;;;;14.60;13.25;;;;;;;;;;10334791;28;20083;-60
2023/07/03 05:02:02;;;;;;;16.70;14.05;;;;;;;;;;10334770;28;20072;-60
2023/07/03 05:07:01;;;;;;;22.30;14.57;;;;;;;;;;10332535;28;20063;-60
2023/07/03 05:11:59;;;;;;;15.32;14.02;;;;;;;;;;10333998;28;20059;-60
2023/07/03 05:16:57;;;;;;;15.38;14.07;;;;;;;;;;10333116;28;20078;-59
2023/07/03 05:21:57;;;;;;;15.95;14.65;;;;;;;;;;10332719;28;20533;-59
2023/07/03 05:26:55;;;;;;;14.80;13.50;;;;;;;;;;10331233;28;20055;-60
2023/07/03 05:31:54;;;;;;;15.48;14.10;;;;;;;;;;10331139;28;20059;-60
2023/07/03 05:36:53;;;;;;;17.25;15.35;;;;;;;;;;10330336;28;20079;-60
2023/07/03 05:41:52;;;;;;;16.30;14.73;;;;;;;;;;10331019;28;20080;-57
2023/07/03 05:46:51;;;;;;;15.75;14.38;;;;;;;;;;10330386;28;20094;-59
2023/07/03 05:51:49;;;;;;;15.52;14.07;;;;;;;;;;10331542;28;20071;-60
2023/07/03 05:56:57;;;;;;;17.45;15.07;;;;;;;;;;10330364;28;20537;-58
2023/07/03 06:01:56;;;;;;;17.48;15.60;;;;;;;;;;10329006;28;20063;-59
2023/07/03 06:06:56;;;;;;;15.35;14.05;;;;;;;;;;10327569;28;20076;-59
2023/07/03 06:11:55;;;;;;;16.23;14.77;;;;;;;;;;10326515;28;20131;-60
2023/07/03 06:16:55;;;;;;;15.80;14.40;;;;;;;;;;10330916;28;20079;-60
2023/07/03 06:21:56;;;;;;;15.18;13.88;;;;;;;;;;10330401;28;20560;-60
2023/07/03 06:26:54;;;;;;;16.05;14.52;;;;;;;;;;10329028;28;20462;-59
2023/07/03 06:31:52;;;;;;;15.35;14.07;;;;;;;;;;10328933;28;20079;-59
2023/07/03 06:36:52;;;;;;;16.27;14.60;;;;;;;;;;10343363;28;20721;-59
2023/07/03 06:41:50;;;;;;;16.17;14.40;;;;;;;;;;10330652;28;20079;-60
2023/07/03 06:46:49;;;;;;;15.13;13.73;;;;;;;;;;10339752;28;20076;-59
2023/07/03 06:51:47;;;;;;;14.48;13.23;;;;;;;;;;10332630;28;20075;-60
2023/07/03 06:56:48;;;;;;;14.23;12.93;;;;;;;;;;10335920;28;20071;-59
2023/07/03 07:01:46;;;;;;;15.05;13.65;;;;;;;;;;10333311;28;20447;-59
2023/07/03 07:06:44;;;;;;;14.18;12.77;;;;;;;;;;10332407;28;20068;-59
2023/07/03 07:11:42;;;;;;;13.65;12.35;;;;;;;;;;10341947;28;20064;-59
2023/07/03 07:16:42;;;;;;;14.80;13.13;;;;;;;;;;10328965;28;20083;-60
2023/07/03 07:21:42;;;;;;;18.50;13.05;;;;;;;;;;10322035;28;20079;-59
2023/07/03 07:26:40;;;;;;;20.42;12.68;;;;;;;;;;10326925;28;20069;-60
2023/07/03 07:31:38;;;;;;;11.93;10.82;;;;;;;;;;10325724;28;20469;-59
2023/07/03 07:36:41;;;;;;;13.32;12.13;;;;;;;;;;10326560;28;20079;-59
2023/07/03 07:41:39;;;;;;;11.98;10.95;;;;;;;;;;10324894;28;20067;-59
2023/07/03 07:46:37;;;;;;;15.10;11.77;;;;;;;;;;10326770;28;20525;-60
2023/07/03 07:51:36;;;;;;;14.93;13.52;;;;;;;;;;10332709;28;20517;-60
2023/07/03 07:56:35;;;;;;;12.30;11.20;;;;;;;;;;10332881;28;20071;-60
2023/07/03 08:01:33;;;;;;;12.35;11.07;;;;;;;;;;10336817;28;20668;-59
2023/07/03 08:06:32;;;;;;;11.63;10.55;;;;;;;;;;10334324;28;20083;-60
2023/07/03 08:11:33;;;;;;;13.18;11.45;;;;;;;;;;10334515;28;20071;-60
2023/07/03 08:16:32;;;;;;;11.52;10.48;;;;;;;;;;10333818;28;20060;-60
2023/07/03 08:21:31;;;;;;;12.27;11.27;;;;;;;;;;10331707;28;20090;-61
2023/07/03 08:26:31;;;;;;;9.85;9.05;;;;;;;;;;10338555;28;20067;-60
2023/07/03 08:31:29;;;;;;;10.25;9.20;;;;;;;;;;10334416;28;20559;-60
2023/07/03 08:36:29;;;;;;;11.75;10.45;;;;;;;;;;10334913;28;20133;-60
2023/07/03 08:41:36;;;;;;;10.63;9.63;;;;;;;;;;10334430;28;20088;-60
2023/07/03 08:46:35;;;;;;;11.65;10.50;;;;;;;;;;10332097;28;20097;-59
2023/07/03 08:51:36;;;;;;;9.98;9.07;;;;;;;;;;10334518;28;20075;-59
2023/07/03 08:56:35;;;;;;;11.05;9.63;;;;;;;;;;10334610;28;20076;-60
2023/07/03 09:01:36;;;;;;;11.63;8.35;;;;;;;;;;10333234;28;20098;-60
2023/07/03 09:06:42;;;;;;;10.25;9.25;;;;;;;;;;10330466;28;20450;-59
2023/07/03 09:11:43;;;;;;;10.20;9.18;;;;;;;;;;10333195;28;20438;-59
2023/07/03 09:16:46;;;;;;;9.55;8.60;;;;;;;;;;10333171;28;20064;-60
2023/07/03 09:21:46;;;;;;;10.00;9.00;;;;;;;;;;10328813;28;20185;-59
2023/07/03 09:26:47;;;;;;;10.50;9.10;;;;;;;;;;10320205;28;20075;-60
2023/07/03 09:31:45;;;;;;;12.15;9.18;;;;;;;;;;10327823;28;20063;-60
2023/07/03 09:36:44;;;;;;;12.00;9.35;;;;;;;;;;10334346;28;20106;-60
2023/07/03 09:41:43;;;;;;;9.27;8.40;;;;;;;;;;10331062;28;20079;-59
2023/07/03 09:46:42;;;;;;;8.70;7.90;;;;;;;;;;10332786;28;20086;-60
2023/07/03 09:51:40;;;;;;;9.23;8.10;;;;;;;;;;10327368;28;20072;-59
2023/07/03 09:56:39;;;;;;;9.40;8.02;;;;;;;;;;10325630;28;20063;-58
2023/07/03 10:01:39;;;;;;;7.75;7.05;;;;;;;;;;10326883;28;20083;-57
2023/07/03 10:06:51;;;;;;;6.82;6.22;;;;;;;;;;10328373;28;20584;-58
2023/07/03 10:11:54;;;;;;;6.57;5.97;;;;;;;;;;10328868;28;20060;-60
2023/07/03 10:16:55;;;;;;;7.23;6.60;;;;;;;;;;10335337;28;20083;-60
2023/07/03 10:21:53;;;;;;;7.13;6.53;;;;;;;;;;10310953;28;20498;-60
2023/07/03 10:26:53;;;;;;;6.95;6.25;;;;;;;;;;10326357;28;20068;-58
2023/07/03 10:31:53;;;;;;;6.93;6.22;;;;;;;;;;10323521;28;20083;-58
2023/07/03 10:36:56;;;;;;;7.53;6.80;;;;;;;;;;10327267;28;20067;-58
2023/07/03 10:41:56;;;;;;;;;;;;;;;;;;10321330;28;20064;-59
2023/07/03 10:46:57;;;;;;;6.75;6.05;;;;;;;;;;10322177;28;19948;-60
2023/07/03 10:52:03;;;;;;;7.60;6.90;;;;;;;;;;10330303;28;20523;-60
2023/07/03 10:57:03;;;;;;;7.35;6.70;;;;;;;;;;10328527;28;20477;-61
2023/07/03 11:02:08;;;;;;;7.07;6.43;;;;;;;;;;10327588;28;20080;-59
2023/07/03 11:07:11;;;;;;;14.15;10.75;;;;;;;;;;10322791;28;20158;-60
2023/07/03 11:12:14;;;;;;;5.57;5.10;;;;;;;;;;10326346;28;20147;-60
2023/07/03 11:17:16;;;;;;;8.50;7.70;;;;;;;;;;10332836;28;20064;-60
2023/07/03 11:22:17;;;;;;;9.50;7.22;;;;;;;;;;10337047;28;20076;-60
2023/07/03 11:27:22;;;;;;;7.75;7.05;;;;;;;;;;10339655;28;20075;-62
2023/07/03 11:32:24;;;;;;;7.28;6.68;;;;;;;;;;10339378;28;20074;-62
2023/07/03 11:37:44;;;;;;;8.23;6.68;;;;;;;;;;10338485;28;20072;-60
2023/07/03 11:42:45;;;;;;;11.80;7.60;;;;;;;;;;10340267;28;20527;-60
2023/07/03 11:47:47;;;;;;;8.15;7.35;;;;;;;;;;10343592;28;20474;-61
2023/07/03 11:52:48;;;;;;;8.25;7.45;;;;;;;;;;10340416;28;20075;-61
2023/07/03 11:57:49;;;;;;;14.00;7.63;;;;;;;;;;10335971;28;20087;-60
2023/07/03 12:03:07;;;;;;;7.20;6.57;;;;;;;;;;10339723;28;20108;-60
2023/07/03 12:08:10;;;;;;;11.57;7.13;;;;;;;;;;10339511;28;20064;-60
2023/07/03 12:13:42;;;;;;;8.13;7.05;;;;;;;;;;10340774;28;20068;-61
2023/07/03 12:18:40;;;;;;;6.70;6.10;;;;;;;;;;10200002;28;20107;-60
2023/07/03 12:23:41;;;;;;;7.68;6.25;;;;;;;;;;10304873;28;20076;-59
2023/07/03 12:28:41;;;;;;;6.85;6.05;;;;;;;;;;10340594;28;20070;-60
2023/07/03 12:33:47;;;;;;;7.63;6.75;;;;;;;;;;10340989;28;20067;-60
2023/07/03 12:38:47;;;;;;;9.00;6.97;;;;;;;;;;10338485;28;20064;-59
2023/07/03 12:43:46;;;;;;;6.55;5.95;;;;;;;;;;10334061;28;20087;-58
2023/07/03 12:49:05;;;;;;;7.10;6.40;;;;;;;;;;10338808;28;20075;-59
2023/07/03 12:54:05;;;;;;;7.15;6.43;;;;;;;;;;10320162;28;20079;-57
2023/07/03 12:59:05;;;;;;;6.65;5.88;;;;;;;;;;10330903;28;20064;-58
2023/07/03 13:04:05;;;;;;;8.32;5.97;;;;;;;;;;10340565;28;20063;-57
2023/07/03 13:09:04;;;;;;;9.07;6.95;;;;;;;;;;10329710;28;20079;-57
2023/07/03 13:14:14;;;;;;;10.52;6.53;;;;;;;;;;10331411;28;20543;-59
2023/07/03 13:19:24;;;;;;;9.38;6.90;;;;;;;;;;10334485;28;20468;-57
2023/07/03 13:24:23;;;;;;;7.40;6.80;;;;;;;;;;10339336;28;20094;-59
2023/07/03 13:29:25;;;;;;;6.72;6.13;;;;;;;;;;10329443;28;20076;-59
2023/07/03 13:34:23;;;;;;;7.20;6.47;;;;;;;;;;10339445;28;20078;-58
2023/07/03 13:39:31;;;;;;;8.80;6.40;;;;;;;;;;10339061;28;20071;-60
2023/07/03 13:44:33;;;;;;;8.02;7.25;;;;;;;;;;10337474;28;20076;-59
2023/07/03 13:49:31;;;;;;;11.90;6.88;;;;;;;;;;10338754;28;20083;-59
2023/07/03 13:54:29;;;;;;;10.45;7.60;;;;;;;;;;10332875;28;20060;-58
2023/07/03 13:59:27;;;;;;;9.30;7.05;;;;;;;;;;10337981;28;20063;-59
2023/07/03 14:04:27;;;;;;;8.57;6.88;;;;;;;;;;10320454;28;20075;-58
2023/07/03 14:09:26;;;;;;;7.28;6.57;;;;;;;;;;10332041;28;20091;-60
2023/07/03 14:14:24;;;;;;;10.40;6.70;;;;;;;;;;10332041;28;20576;-60
2023/07/03 14:19:22;;;;;;;11.75;7.47;;;;;;;;;;10328615;28;20072;-59
2023/07/03 14:24:24;;;;;;;7.22;6.45;;;;;;;;;;10329892;28;20082;-60
2023/07/03 14:29:22;;;;;;;9.77;7.00;;;;;;;;;;10331262;28;20068;-59
2023/07/03 14:34:20;;;;;;;7.07;6.47;;;;;;;;;;10331610;28;20071;-60
2023/07/03 14:39:19;;;;;;;11.35;6.28;;;;;;;;;;10333533;28;20109;-60
2023/07/03 14:44:18;;;;;;;8.18;7.38;;;;;;;;;;10333262;28;20087;-60
2023/07/03 14:49:16;;;;;;;8.00;6.35;;;;;;;;;;10330281;28;20075;-60
2023/07/03 14:54:15;;;;;;;7.32;6.30;;;;;;;;;;10332741;28;20074;-61
2023/07/03 14:59:13;;;;;;;6.82;6.22;;;;;;;;;;10344768;28;20075;-61
2023/07/03 15:04:13;;;;;;;6.45;5.95;;;;;;;;;;10347037;28;20086;-61
2023/07/03 15:09:11;;;;;;;10.25;7.15;;;;;;;;;;10349522;28;20418;-61
2023/07/03 15:14:10;;;;;;;12.18;6.28;;;;;;;;;;10344654;28;20066;-61
2023/07/03 15:19:09;;;;;;;8.63;7.00;;;;;;;;;;10339803;28;20079;-61
2023/07/03 15:24:09;;;;;;;27.45;7.28;;;;;;;;;;10343791;28;20084;-61
2023/07/03 15:29:07;;;;;;;8.60;6.10;;;;;;;;;;10345779;28;20079;-60
2023/07/03 15:34:05;;;;;;;8.25;7.03;;;;;;;;;;10346314;28;20511;-60
2023/07/03 15:39:04;;;;;;;11.30;6.47;;;;;;;;;;10342072;28;20078;-61
2023/07/03 15:44:04;;;;;;;7.38;6.78;;;;;;;;;;10344041;28;20079;-61
2023/07/03 15:49:02;;;;;;;7.47;6.50;;;;;;;;;;10344166;28;20445;-60
2023/07/03 15:54:00;;;;;;;7.78;6.43;;;;;;;;;;10337824;28;20076;-60
2023/07/03 15:58:59;;;;;;;6.88;5.97;;;;;;;;;;10340122;28;20082;-60
2023/07/03 16:04:01;;;;;;;10.52;8.13;;;;;;;;;;10343805;28;20082;-60
2023/07/03 16:08:59;;;;;;;13.57;6.90;;;;;;;;;;10336977;28;20079;-60
2023/07/03 16:13:58;;;;;;;6.60;6.00;;;;;;;;;;10335088;28;20074;-60
2023/07/03 16:18:58;;;;;;;7.78;6.75;;;;;;;;;;10337929;28;20068;-60
2023/07/03 16:23:58;;;;;;;10.82;8.55;;;;;;;;;;10332057;28;20079;-61
2023/07/03 16:28:56;;;;;;;7.75;6.43;;;;;;;;;;10331619;28;20079;-62
2023/07/03 16:33:56;;;;;;;10.35;6.93;;;;;;;;;;10334624;28;20075;-61
2023/07/03 16:38:55;;;;;;;6.57;5.40;;;;;;;;;;10333533;28;20071;-61
2023/07/03 16:43:56;;;;;;;12.25;9.25;;;;;;;;;;10339296;28;20075;-60
2023/07/03 16:48:55;;;;;;;6.43;5.85;;;;;;;;;;10339008;28;20076;-62
2023/07/03 16:53:53;;;;;;;13.10;11.88;;;;;;;;;;10338598;28;20066;-59
2023/07/03 16:58:52;;;;;;;6.55;5.95;;;;;;;;;;10339145;28;20060;-60
2023/07/03 17:03:53;;;;;;;6.38;5.72;;;;;;;;;;10340424;28;20452;-60
2023/07/03 17:08:51;;;;;;;6.10;5.60;;;;;;;;;;10341352;28;20559;-60
2023/07/03 17:13:50;;;;;;;8.95;6.00;;;;;;;;;;10341669;28;20080;-60
2023/07/03 17:18:48;;;;;;;6.78;6.13;;;;;;;;;;10332990;28;20075;-61
2023/07/03 17:23:50;;;;;;;9.60;6.00;;;;;;;;;;10337172;28;20068;-60
2023/07/03 17:28:48;;;;;;;7.90;5.67;;;;;;;;;;10340811;28;20071;-61
2023/07/03 17:33:47;;;;;;;10.40;7.40;;;;;;;;;;10343098;28;20076;-59
2023/07/03 17:38:45;;;;;;;9.27;6.47;;;;;;;;;;10346087;28;20059;-60
2023/07/03 17:43:44;;;;;;;7.22;6.53;;;;;;;;;;10325197;28;20186;-61
2023/07/03 17:48:43;;;;;;;14.25;12.88;;;;;;;;;;10331157;28;20102;-61
2023/07/03 17:53:44;;;;;;;13.13;8.77;;;;;;;;;;10343589;28;20535;-61
2023/07/03 17:58:43;;;;;;;14.60;8.68;;;;;;;;;;10336919;28;20067;-61
2023/07/03 18:03:43;;;;;;;10.00;8.05;;;;;;;;;;10332286;28;20064;-60
2023/07/03 18:08:41;;;;;;;15.27;8.52;;;;;;;;;;10336624;28;20071;-61
2023/07/03 18:13:39;;;;;;;10.93;8.50;;;;;;;;;;10334798;28;20064;-60
2023/07/03 18:18:37;;;;;;;17.25;6.78;;;;;;;;;;10333846;28;20083;-61
2023/07/03 18:23:38;;;;;;;16.23;8.23;;;;;;;;;;10334745;28;20067;-60
2023/07/03 18:28:39;;;;;;;11.95;7.25;;;;;;;;;;10338662;28;20484;-60
2023/07/03 18:33:37;;;;;;;14.32;7.15;;;;;;;;;;10336433;28;20503;-59
2023/07/03 18:38:36;;;;;;;13.45;12.18;;;;;;;;;;10333899;28;20071;-60
2023/07/03 18:43:35;;;;;;;16.75;8.00;;;;;;;;;;10335322;28;20076;-59
2023/07/03 18:48:34;;;;;;;21.55;9.77;;;;;;;;;;10332369;28;20532;-61
2023/07/03 18:53:32;;;;;;;12.10;7.70;;;;;;;;;;10329443;28;20072;-61
2023/07/03 18:58:30;;;;;;;9.85;7.63;;;;;;;;;;10332627;28;20075;-61
2023/07/03 19:03:31;;;;;;;17.00;8.25;;;;;;;;;;10329137;28;20076;-60
2023/07/03 19:08:30;;;;;;;11.80;7.22;;;;;;;;;;10334118;28;20507;-59
2023/07/03 19:13:28;;;;;;;15.65;8.02;;;;;;;;;;10330916;28;20189;-59
2023/07/03 19:18:27;;;;;;;10.18;7.97;;;;;;;;;;10341553;28;20467;-60
2023/07/03 19:23:26;;;;;;;13.48;11.10;;;;;;;;;;10336323;28;20094;-60
2023/07/03 19:28:25;;;;;;;11.88;7.25;;;;;;;;;;10336503;28;20115;-59
2023/07/03 19:33:23;;;;;;;14.65;7.57;;;;;;;;;;10337742;28;20059;-60
2023/07/03 19:38:22;;;;;;;13.80;7.22;;;;;;;;;;10332733;28;20067;-60
2023/07/03 19:43:21;;;;;;;11.75;8.30;;;;;;;;;;10332883;28;20071;-59
2023/07/03 19:48:19;;;;;;;8.52;7.18;;;;;;;;;;10337045;28;20063;-59
2023/07/03 19:53:18;;;;;;;10.40;7.47;;;;;;;;;;10344825;28;20075;-59
2023/07/03 19:58:17;;;;;;;8.88;6.55;;;;;;;;;;10340707;28;20637;-60
2023/07/03 20:03:16;;;;;;;7.97;7.28;;;;;;;;;;10336380;28;20064;-60
2023/07/03 20:08:15;;;;;;;8.88;7.22;;;;;;;;;;10338372;28;20484;-59
2023/07/03 20:13:14;;;;;;;9.20;6.93;;;;;;;;;;10337409;28;20465;-60
2023/07/03 20:18:13;;;;;;;8.32;7.53;;;;;;;;;;10336209;28;20076;-60
2023/07/03 20:23:12;;;;;;;8.20;7.40;;;;;;;;;;10336451;28;20075;-60
2023/07/03 20:28:11;;;;;;;8.18;7.47;;;;;;;;;;10343776;28;20076;-60
2023/07/03 20:33:09;;;;;;;13.07;7.85;;;;;;;;;;10337957;28;20064;-60
2023/07/03 20:38:08;;;;;;;11.48;7.72;;;;;;;;;;10347854;28;20457;-61
2023/07/03 20:43:08;;;;;;;10.23;7.95;;;;;;;;;;10340290;28;20512;-60
2023/07/03 20:48:07;;;;;;;14.05;9.43;;;;;;;;;;10335571;28;20559;-60
2023/07/03 20:53:10;;;;;;;14.40;10.52;;;;;;;;;;10339676;28;20476;-59
2023/07/03 20:58:12;;;;;;;10.35;9.05;;;;;;;;;;10341286;28;20048;-59
2023/07/03 21:03:13;;;;;;;9.57;8.48;;;;;;;;;;10343389;28;20040;-58
2023/07/03 21:08:16;;;;;;;10.60;7.70;;;;;;;;;;10326614;28;20060;-58
2023/07/03 21:13:16;;;;;;;9.20;8.30;;;;;;;;;;10342709;28;20080;-59
2023/07/03 21:18:14;;;;;;;10.80;9.32;;;;;;;;;;10337167;28;20068;-59
2023/07/03 21:23:12;;;;;;;10.18;7.97;;;;;;;;;;10330188;28;20082;-59
2023/07/03 21:28:10;;;;;;;10.70;7.70;;;;;;;;;;10336782;28;20531;-60
2023/07/03 21:33:10;;;;;;;9.70;7.35;;;;;;;;;;10343459;28;20068;-60
2023/07/03 21:38:08;;;;;;;13.63;7.20;;;;;;;;;;10337089;28;20075;-60
2023/07/03 21:43:06;;;;;;;9.55;7.82;;;;;;;;;;10340139;28;20071;-58
2023/07/03 21:48:05;;;;;;;10.80;8.52;;;;;;;;;;10342379;28;20084;-59
2023/07/03 21:53:04;;;;;;;9.65;8.10;;;;;;;;;;10343029;28;20076;-60
2023/07/03 21:58:02;;;;;;;7.25;6.40;;;;;;;;;;10339880;28;20064;-59
2023/07/03 22:03:01;;;;;;;7.75;7.03;;;;;;;;;;10337208;28;20071;-58
2023/07/03 22:07:59;;;;;;;8.10;6.22;;;;;;;;;;10332770;28;20087;-59
2023/07/03 22:12:59;;;;;;;7.53;6.63;;;;;;;;;;10339280;28;20067;-61
2023/07/03 22:17:57;;;;;;;7.38;6.68;;;;;;;;;;10337030;28;20072;-60
2023/07/03 22:22:55;;;;;;;7.05;6.30;;;;;;;;;;10338396;28;20060;-60
2023/07/03 22:27:54;;;;;;;7.82;6.60;;;;;;;;;;10334148;28;20536;-60
2023/07/03 22:32:53;;;;;;;7.85;6.68;;;;;;;;;;10330479;28;20484;-61
2023/07/03 22:37:53;;;;;;;9.77;6.30;;;;;;;;;;10328784;28;20057;-60
2023/07/03 22:42:51;;;;;;;7.07;6.47;;;;;;;;;;10333564;28;20698;-60
2023/07/03 22:47:51;;;;;;;6.63;5.93;;;;;;;;;;10319152;28;20563;-60
2023/07/03 22:52:51;;;;;;;8.25;6.25;;;;;;;;;;10317291;28;20082;-61
2023/07/03 22:57:50;;;;;;;14.23;8.05;;;;;;;;;;10332635;28;20076;-60
2023/07/03 23:02:48;;;;;;;15.07;7.78;;;;;;;;;;10330900;28;20072;-60
2023/07/03 23:07:46;;;;;;;11.05;6.65;;;;;;;;;;10328631;28;20080;-61
2023/07/03 23:12:48;;;;;;;12.35;8.60;;;;;;;;;;10329003;28;20559;-60
2023/07/03 23:17:46;;;;;;;8.95;7.30;;;;;;;;;;10336179;28;20076;-59
2023/07/03 23:22:44;;;;;;;9.70;7.70;;;;;;;;;;10336029;28;20083;-60
2023/07/03 23:27:44;;;;;;;13.73;7.45;;;;;;;;;;10336042;28;20064;-59
2023/07/03 23:32:44;;;;;;;11.07;7.93;;;;;;;;;;10334639;28;20082;-59
2023/07/03 23:37:43;;;;;;;8.93;7.25;;;;;;;;;;10336786;28;20075;-59
2023/07/03 23:42:42;;;;;;;15.32;8.80;;;;;;;;;;10337483;28;20067;-59
2023/07/03 23:47:40;;;;;;;13.10;7.43;;;;;;;;;;10335968;28;20095;-59
2023/07/03 23:52:40;;;;;;;8.80;6.55;;;;;;;;;;10336385;28;20583;-60
2023/07/03 23:57:38;;;;;;;8.15;7.18;;;;;;;;;;10337408;28;20067;-59
